Current Conditions
Misty
Conditions



Pressure
995.92 (hPa) - 29.41 (inHG)
Visibility

4.5 (km) - 2.8 (miles)
   Temperature
14  °C
57°F
13  °C
Dewpoint
94  %
 Humidity
   Wind Speed
5  km/h
3  kts
3  mph
1.3  m/s
   Wind Direction
 280°
Due West
   Airport Data
EDLP
Location Paderborn Lippstadt 39 km (24.24 mi)
Metar :EDLP 040920Z 28003KT 220V320 4500 BR BKN003 BKN005 OVC026 14/13 Q0996
Thu 4th June 11:20 am
   Raw Metar Info
Raw METAR is the most common format in the world for the transmission of observational weather data. It is highly standardized through the International Civil Aviation Organization (ICAO), which allows it to be understood throughout most of the world.
   API Info
Data Provided by
https://www.checkwx.com/weather/EDLP
   © Info
CSS/SVG/PHP scripts were developed by weather34.com for use in the weather34 template © 2015-2020

Guide Info provided by Metar-Wikipedia